createdAt,value
2023-02-11T00:02:34.548Z,49.47
2023-02-11T00:05:36.236Z,45.47
2023-02-11T00:08:38.878Z,51.20
2023-02-11T00:11:40.582Z,44.38
2023-02-11T00:14:42.228Z,46.90
2023-02-11T00:17:43.939Z,42.67
2023-02-11T00:20:45.584Z,50.08
2023-02-11T00:23:47.748Z,47.55
2023-02-11T00:26:49.364Z,49.80
2023-02-11T00:29:51.022Z,46.20
2023-02-11T00:32:52.698Z,52.22
2023-02-11T00:35:54.361Z,53.55
2023-02-11T00:38:57.410Z,54.30
2023-02-11T00:41:59.073Z,51.10
2023-02-11T00:45:00.714Z,51.03
2023-02-11T00:48:02.363Z,59.75
2023-02-11T00:51:04.353Z,44.22
2023-02-11T00:54:06.866Z,46.45
2023-02-11T00:57:08.549Z,47.83
2023-02-11T01:00:12.857Z,50.38
2023-02-11T01:03:14.566Z,48.28
2023-02-11T01:06:16.528Z,39.47
2023-02-11T01:09:18.335Z,49.08
2023-02-11T01:12:20.213Z,55.08
2023-02-11T01:15:22.339Z,47.75
2023-02-11T01:18:24.849Z,52.90
2023-02-11T01:21:26.511Z,57.88
2023-02-11T01:24:28.282Z,48.72
2023-02-11T01:27:29.938Z,52.42
2023-02-11T01:30:31.655Z,49.75
2023-02-11T01:33:33.335Z,58.60
2023-02-11T01:36:34.979Z,49.75
2023-02-11T01:39:37.155Z,59.40
2023-02-11T01:42:39.158Z,53.55
2023-02-11T01:45:49.996Z,54.78
2023-02-11T01:49:07.353Z,52.50
2023-02-11T01:52:20.140Z,57.35
2023-02-11T01:55:40.370Z,56.55
2023-02-11T01:58:44.525Z,56.47
2023-02-11T02:01:52.122Z,56.08
2023-02-11T02:05:02.701Z,50.72
2023-02-11T02:08:17.520Z,52.45
2023-02-11T02:11:19.217Z,55.67
2023-02-11T02:14:20.931Z,56.90
2023-02-11T02:17:38.500Z,57.72
2023-02-11T02:21:13.734Z,53.95
2023-02-11T02:24:27.217Z,50.78
2023-02-11T02:27:28.828Z,54.67
2023-02-11T02:30:36.166Z,61.22
2023-02-11T02:33:47.836Z,60.90
2023-02-11T02:37:04.618Z,55.50
2023-02-11T02:40:22.774Z,54.83
2023-02-11T02:43:27.138Z,61.37
2023-02-11T02:46:33.942Z,60.58
2023-02-11T02:49:35.646Z,61.33
2023-02-11T02:52:55.273Z,57.42
2023-02-11T02:56:15.070Z,62.50
2023-02-11T02:59:19.792Z,53.00
2023-02-11T03:02:22.151Z,60.65
2023-02-11T03:05:31.426Z,60.38
2023-02-11T03:08:40.746Z,57.97
2023-02-11T03:11:42.463Z,66.60
2023-02-11T03:14:45.390Z,52.50
2023-02-11T03:17:51.277Z,63.58
2023-02-11T03:20:54.974Z,59.05
2023-02-11T03:24:07.870Z,58.30
2023-02-11T03:27:21.129Z,57.28
2023-02-11T03:30:30.297Z,60.42
2023-02-11T03:33:47.945Z,64.12
2023-02-11T03:37:00.442Z,59.45
2023-02-11T03:40:13.084Z,56.10
2023-02-11T03:43:22.858Z,49.67
2023-02-11T03:46:32.193Z,48.63
2023-02-11T03:49:36.450Z,58.22
2023-02-11T03:52:38.771Z,54.83
2023-02-11T03:55:42.455Z,63.10
2023-02-11T03:58:48.499Z,59.80
2023-02-11T04:01:50.229Z,63.80
2023-02-11T04:04:51.905Z,65.55
2023-02-11T04:07:53.596Z,54.17
2023-02-11T04:10:55.220Z,53.47
2023-02-11T04:13:56.900Z,59.97
2023-02-11T04:16:58.593Z,62.25
2023-02-11T04:20:00.226Z,68.20
2023-02-11T04:23:01.882Z,60.08
2023-02-11T04:26:03.836Z,54.90
2023-02-11T04:29:05.534Z,63.95
2023-02-11T04:32:07.335Z,60.75
2023-02-11T04:35:09.061Z,66.70
2023-02-11T04:38:10.722Z,62.85
2023-02-11T04:41:12.380Z,66.68
2023-02-11T04:44:14.085Z,63.65
2023-02-11T04:47:15.933Z,62.15
2023-02-11T04:50:17.707Z,59.00
2023-02-11T04:53:19.411Z,59.25
2023-02-11T04:56:21.088Z,67.32
2023-02-11T04:59:22.724Z,63.85
2023-02-11T05:02:24.371Z,59.33
2023-02-11T05:05:26.063Z,60.12
2023-02-11T05:08:27.952Z,63.72
2023-02-11T05:11:29.677Z,55.05
2023-02-11T05:14:31.358Z,55.47
2023-02-11T05:17:33.022Z,60.00
2023-02-11T05:20:34.755Z,59.38
2023-02-11T05:23:36.841Z,62.22
2023-02-11T05:26:38.477Z,57.50
2023-02-11T05:29:40.136Z,61.50
2023-02-11T05:32:41.905Z,55.45
2023-02-11T05:35:43.634Z,56.92
2023-02-11T05:38:45.294Z,60.40
2023-02-11T05:41:46.998Z,61.92
2023-02-11T05:44:50.628Z,56.85
2023-02-11T05:47:52.425Z,67.30
2023-02-11T05:50:54.099Z,65.35
2023-02-11T05:53:55.784Z,53.13
2023-02-11T05:56:57.485Z,72.25
2023-02-11T05:59:59.171Z,57.97
2023-02-11T06:03:00.972Z,63.38
2023-02-11T06:06:02.632Z,63.42
2023-02-11T06:09:04.404Z,62.83
2023-02-11T06:12:06.218Z,52.05
2023-02-11T06:15:08.109Z,52.72
2023-02-11T06:18:09.834Z,61.35
2023-02-11T06:21:12.294Z,54.38
2023-02-11T06:24:14.069Z,62.13
2023-02-11T06:27:15.681Z,53.83
2023-02-11T06:30:17.429Z,54.78
2023-02-11T06:33:19.197Z,52.13
2023-02-11T06:36:22.952Z,57.40
2023-02-11T06:39:24.626Z,57.38
2023-02-11T06:42:26.383Z,59.03
2023-02-11T06:45:28.034Z,60.97
2023-02-11T06:48:29.685Z,59.13
2023-02-11T06:51:31.491Z,57.90
2023-02-11T06:54:33.242Z,57.38
2023-02-11T06:57:34.990Z,57.40
2023-02-11T07:00:37.056Z,54.03
2023-02-11T07:03:40.789Z,59.70
2023-02-11T07:06:42.585Z,58.63
2023-02-11T07:09:44.366Z,57.78
2023-02-11T07:12:45.984Z,48.25
2023-02-11T07:15:47.994Z,56.13
2023-02-11T07:18:50.053Z,50.95
2023-02-11T07:21:51.754Z,61.95
2023-02-11T07:24:53.443Z,52.83
2023-02-11T07:27:55.157Z,54.42
2023-02-11T07:30:56.910Z,53.15
2023-02-11T07:34:01.052Z,54.78
2023-02-11T07:37:03.164Z,49.30
2023-02-11T07:40:05.221Z,51.17
2023-02-11T07:43:06.853Z,44.15
2023-02-11T07:46:14.986Z,51.80
2023-02-11T07:49:16.977Z,48.95
2023-02-11T07:52:18.863Z,45.97
2023-02-11T07:55:20.492Z,46.40
2023-02-11T07:58:22.123Z,53.00
2023-02-11T08:01:28.367Z,51.75
2023-02-11T08:04:30.156Z,49.60
2023-02-11T08:07:32.376Z,43.25
2023-02-11T08:10:34.008Z,55.08
2023-02-11T08:13:36.215Z,49.42
2023-02-11T08:16:39.042Z,47.28
2023-02-11T08:19:40.822Z,47.47
2023-02-11T08:22:42.485Z,48.17
2023-02-11T08:25:44.102Z,51.80
2023-02-11T08:28:47.747Z,48.58
2023-02-11T08:31:49.723Z,45.35
2023-02-11T08:34:52.411Z,47.55
2023-02-11T08:37:54.148Z,49.92
2023-02-11T08:40:55.756Z,46.15
2023-02-11T08:43:58.297Z,51.70
2023-02-11T08:46:59.953Z,55.45
2023-02-11T08:50:01.585Z,50.17
2023-02-11T08:53:03.343Z,42.58
2023-02-11T08:56:06.230Z,59.33
2023-02-11T08:59:09.511Z,49.13
2023-02-11T09:02:14.121Z,46.83
2023-02-11T09:05:15.949Z,53.58
2023-02-11T09:08:17.623Z,41.97
2023-02-11T09:11:21.876Z,44.35
2023-02-11T09:14:24.679Z,45.12
2023-02-11T09:17:26.404Z,43.75
2023-02-11T09:20:28.379Z,41.33
2023-02-11T09:23:30.291Z,43.53
2023-02-11T09:26:34.200Z,40.60
2023-02-11T09:29:35.850Z,38.58
2023-02-11T09:32:37.539Z,40.55
2023-02-11T09:35:39.175Z,38.95
2023-02-11T09:38:40.858Z,42.53
2023-02-11T09:41:51.383Z,40.25
2023-02-11T09:44:53.262Z,37.20
2023-02-11T09:48:06.432Z,44.15
2023-02-11T09:51:23.851Z,38.53
2023-02-11T09:54:37.602Z,41.08
2023-02-11T09:57:39.314Z,43.70
2023-02-11T10:00:52.222Z,40.47
2023-02-11T10:03:56.893Z,45.65
2023-02-11T10:07:11.005Z,40.63
2023-02-11T10:10:44.489Z,54.67
2023-02-11T10:14:05.786Z,41.17
2023-02-11T10:17:32.475Z,44.17
2023-02-11T10:20:39.363Z,44.17
2023-02-11T10:23:45.264Z,43.10
2023-02-11T10:26:47.161Z,41.72
2023-02-11T10:29:57.322Z,40.65
2023-02-11T10:33:24.792Z,43.78
2023-02-11T10:36:30.520Z,46.63
2023-02-11T10:39:32.323Z,45.42
2023-02-11T10:42:35.780Z,40.08
2023-02-11T10:45:48.702Z,42.13
2023-02-11T10:48:53.817Z,47.45
2023-02-11T10:52:23.849Z,42.83
2023-02-11T10:55:28.756Z,39.55
2023-02-11T10:58:47.033Z,43.20
2023-02-11T11:01:51.320Z,42.20
2023-02-11T11:04:57.647Z,39.55
2023-02-11T11:08:05.968Z,41.55
2023-02-11T11:11:11.001Z,40.95
2023-02-11T11:14:20.510Z,41.63
2023-02-11T11:17:22.658Z,44.65
2023-02-11T11:20:35.254Z,45.42
2023-02-11T11:23:37.917Z,50.00
2023-02-11T11:26:48.659Z,49.47
2023-02-11T11:29:53.745Z,49.80
2023-02-11T11:32:56.790Z,41.42
2023-02-11T11:36:23.650Z,39.63
2023-02-11T11:39:29.522Z,42.20
2023-02-11T11:42:34.037Z,38.42
2023-02-11T11:45:36.052Z,39.83
2023-02-11T11:48:42.964Z,40.70
2023-02-11T11:51:58.622Z,40.95
2023-02-11T11:55:12.378Z,37.83
2023-02-11T11:58:21.216Z,36.45
2023-02-11T12:01:41.676Z,40.33
2023-02-11T12:04:51.640Z,42.45
2023-02-11T12:08:18.261Z,38.13
2023-02-11T12:11:19.930Z,38.53
2023-02-11T12:14:28.920Z,32.83
2023-02-11T12:17:44.175Z,33.83
2023-02-11T12:20:46.064Z,32.50
2023-02-11T12:24:12.222Z,29.45
2023-02-11T12:27:25.105Z,36.55
2023-02-11T12:30:50.874Z,36.65
2023-02-11T12:34:13.519Z,34.85
2023-02-11T12:37:30.660Z,36.10
2023-02-11T12:40:46.384Z,31.87
2023-02-11T12:43:48.634Z,33.90
2023-02-11T12:47:01.368Z,34.08
2023-02-11T12:50:21.778Z,36.72
2023-02-11T12:53:32.667Z,33.03
2023-02-11T12:56:45.526Z,37.70
2023-02-11T13:00:02.519Z,28.10
2023-02-11T13:03:17.022Z,28.05
2023-02-11T13:06:27.820Z,34.00
2023-02-11T13:09:46.863Z,30.85
2023-02-11T13:13:10.363Z,32.70
2023-02-11T13:16:37.083Z,28.85
2023-02-11T13:19:48.336Z,33.97
2023-02-11T13:23:12.266Z,31.23
2023-02-11T13:26:24.990Z,31.77
2023-02-11T13:29:56.753Z,31.02
2023-02-11T13:33:01.070Z,32.70
2023-02-11T13:36:04.736Z,33.58
2023-02-11T13:39:07.211Z,34.22
2023-02-11T13:42:16.555Z,35.00
2023-02-11T13:45:46.347Z,39.08
2023-02-11T13:48:52.702Z,32.40
2023-02-11T13:51:56.314Z,34.47
2023-02-11T13:55:15.259Z,41.50
2023-02-11T13:58:46.474Z,39.75
2023-02-11T14:02:14.433Z,28.17
2023-02-11T14:05:34.802Z,31.60
2023-02-11T14:08:55.362Z,32.55
2023-02-11T14:12:31.132Z,33.92
2023-02-11T14:15:41.469Z,31.02
2023-02-11T14:18:49.233Z,30.77
2023-02-11T14:21:51.107Z,29.92
2023-02-11T14:25:00.993Z,33.58
2023-02-11T14:28:24.408Z,27.52
2023-02-11T14:31:41.508Z,30.00
2023-02-11T14:35:27.788Z,32.10
2023-02-11T14:38:41.045Z,31.33
2023-02-11T14:41:46.344Z,26.33
2023-02-11T14:44:50.906Z,31.67
2023-02-11T14:48:23.289Z,32.05
2023-02-11T14:51:31.334Z,22.80
2023-02-11T14:54:35.404Z,26.08
2023-02-11T14:57:38.266Z,30.08
2023-02-11T15:01:21.461Z,27.05
2023-02-11T15:04:28.082Z,28.75
2023-02-11T15:07:30.455Z,27.90
2023-02-11T15:10:37.945Z,30.37
2023-02-11T15:13:47.549Z,29.90
2023-02-11T15:16:51.350Z,28.52
2023-02-11T15:20:01.100Z,25.88
2023-02-11T15:23:07.566Z,26.23
2023-02-11T15:26:23.320Z,25.48
2023-02-11T15:29:34.958Z,25.58
2023-02-11T15:32:41.614Z,27.85
2023-02-11T15:35:45.026Z,29.23
2023-02-11T15:39:07.519Z,25.27
2023-02-11T15:42:27.239Z,20.27
2023-02-11T15:45:37.565Z,29.37
2023-02-11T15:48:54.174Z,25.12
2023-02-11T15:51:58.446Z,31.65
2023-02-11T15:55:03.251Z,22.92
2023-02-11T15:58:05.892Z,29.30
2023-02-11T16:01:11.768Z,24.75
2023-02-11T16:04:22.244Z,34.67
2023-02-11T16:07:41.664Z,26.73
2023-02-11T16:10:58.818Z,25.88
2023-02-11T16:14:05.153Z,26.53
2023-02-11T16:17:24.296Z,21.85
2023-02-11T16:20:27.172Z,22.27
2023-02-11T16:23:37.229Z,24.42
2023-02-11T16:26:45.725Z,27.50
2023-02-11T16:29:49.883Z,23.25
2023-02-11T16:32:53.912Z,25.98
2023-02-11T16:35:56.887Z,26.58
2023-02-11T16:38:59.404Z,24.23
2023-02-11T16:42:06.421Z,28.27
2023-02-11T16:45:10.625Z,27.35
2023-02-11T16:48:19.786Z,27.17
2023-02-11T16:51:22.685Z,24.85
2023-02-11T16:54:25.457Z,29.50
2023-02-11T16:57:30.207Z,26.17
2023-02-11T17:00:34.069Z,22.90
2023-02-11T17:03:40.977Z,25.10
2023-02-11T17:06:43.580Z,24.60
2023-02-11T17:09:45.898Z,24.58
2023-02-11T17:12:50.056Z,26.40
2023-02-11T17:15:54.251Z,28.48
2023-02-11T17:18:58.847Z,27.37
2023-02-11T17:22:01.614Z,26.20
2023-02-11T17:25:04.355Z,27.00
2023-02-11T17:28:08.394Z,29.63
2023-02-11T17:31:11.381Z,26.70
2023-02-11T17:34:14.102Z,28.73
2023-02-11T17:37:16.651Z,26.17
2023-02-11T17:40:24.485Z,28.12
2023-02-11T17:43:27.871Z,23.05
2023-02-11T17:46:30.881Z,26.27
2023-02-11T17:49:33.280Z,27.52
2023-02-11T17:52:37.400Z,28.58
2023-02-11T17:55:40.307Z,28.17
2023-02-11T17:58:43.972Z,28.12
2023-02-11T18:01:46.968Z,32.95
2023-02-11T18:04:50.093Z,34.45
2023-02-11T18:07:52.751Z,29.30
2023-02-11T18:10:56.041Z,29.25
2023-02-11T18:14:07.884Z,31.90
2023-02-11T18:17:10.741Z,34.53
2023-02-11T18:20:13.787Z,33.83
2023-02-11T18:23:16.874Z,32.35
2023-02-11T18:26:22.863Z,30.92
2023-02-11T18:29:26.157Z,36.85
2023-02-11T18:32:29.084Z,32.13
2023-02-11T18:35:32.479Z,29.17
2023-02-11T18:38:35.689Z,34.10
2023-02-11T18:41:42.855Z,33.83
2023-02-11T18:44:45.113Z,37.53
2023-02-11T18:47:47.723Z,33.63
2023-02-11T18:50:50.596Z,35.40
2023-02-11T18:53:53.518Z,40.55
2023-02-11T18:56:56.447Z,34.50
2023-02-11T19:00:00.954Z,41.33
2023-02-11T19:03:03.477Z,41.97
2023-02-11T19:06:06.388Z,32.45
2023-02-11T19:09:11.836Z,36.75
2023-02-11T19:12:15.121Z,32.35
2023-02-11T19:15:18.698Z,38.13
2023-02-11T19:18:24.613Z,38.17
2023-02-11T19:21:27.322Z,39.28
2023-02-11T19:24:30.807Z,39.80
2023-02-11T19:27:37.330Z,40.45
2023-02-11T19:30:39.944Z,43.33
2023-02-11T19:33:43.948Z,43.45
2023-02-11T19:36:52.323Z,37.30
2023-02-11T19:39:55.236Z,41.00
2023-02-11T19:42:57.944Z,42.95
2023-02-11T19:46:05.961Z,42.35
2023-02-11T19:49:10.482Z,44.03
2023-02-11T19:52:13.007Z,40.67
2023-02-11T19:55:15.875Z,46.13
2023-02-11T19:58:21.185Z,43.75
2023-02-11T20:01:25.975Z,42.80
2023-02-11T20:04:32.609Z,39.55
2023-02-11T20:07:39.054Z,38.75
2023-02-11T20:10:44.191Z,40.40
2023-02-11T20:13:46.685Z,47.60
2023-02-11T20:16:52.292Z,43.42
2023-02-11T20:19:56.081Z,48.33
2023-02-11T20:23:02.203Z,51.08
2023-02-11T20:26:14.076Z,40.67
2023-02-11T20:29:18.295Z,51.40
2023-02-11T20:32:22.413Z,46.13
2023-02-11T20:35:25.396Z,49.55
2023-02-11T20:38:47.562Z,40.70
2023-02-11T20:41:51.522Z,41.10
2023-02-11T20:44:54.449Z,44.03
2023-02-11T20:47:57.795Z,42.47
2023-02-11T20:51:14.753Z,41.80
2023-02-11T20:54:22.452Z,41.75
2023-02-11T20:57:26.562Z,41.63
2023-02-11T21:00:28.997Z,39.35
2023-02-11T21:03:34.335Z,47.35
2023-02-11T21:06:46.028Z,44.95
2023-02-11T21:09:48.983Z,42.55
2023-02-11T21:12:52.019Z,43.90
2023-02-11T21:15:57.898Z,42.10
2023-02-11T21:19:01.677Z,41.22
2023-02-11T21:22:04.708Z,44.63
2023-02-11T21:25:09.068Z,42.88
2023-02-11T21:28:11.292Z,45.20
2023-02-11T21:31:32.877Z,42.30
2023-02-11T21:34:37.649Z,40.12
2023-02-11T21:37:41.108Z,39.30
2023-02-11T21:40:43.468Z,46.97
2023-02-11T21:43:46.164Z,40.20
2023-02-11T21:46:48.355Z,35.88
2023-02-11T21:49:50.594Z,45.60
2023-02-11T21:52:52.491Z,38.85
2023-02-11T21:56:04.434Z,49.55
2023-02-11T21:59:07.148Z,45.40
2023-02-11T22:02:11.318Z,42.20
2023-02-11T22:05:13.881Z,35.20
2023-02-11T22:08:17.530Z,43.33
2023-02-11T22:11:20.984Z,37.28
2023-02-11T22:14:22.800Z,42.42
2023-02-11T22:17:24.954Z,37.08
2023-02-11T22:20:26.744Z,37.15
2023-02-11T22:23:29.055Z,38.72
2023-02-11T22:26:30.838Z,36.72
2023-02-11T22:29:32.644Z,44.90
2023-02-11T22:32:34.322Z,37.78
2023-02-11T22:35:35.946Z,41.75
2023-02-11T22:38:37.621Z,39.58
2023-02-11T22:41:41.858Z,41.37
2023-02-11T22:44:43.527Z,43.42
2023-02-11T22:47:45.159Z,43.95
2023-02-11T22:50:46.774Z,40.25
2023-02-11T22:54:15.962Z,41.40
2023-02-11T22:57:17.612Z,40.78
2023-02-11T23:00:20.852Z,38.38
2023-02-11T23:03:22.616Z,38.60
2023-02-11T23:06:24.424Z,43.08
2023-02-11T23:09:26.105Z,44.58
2023-02-11T23:12:27.780Z,40.40
2023-02-11T23:15:29.555Z,34.72
2023-02-11T23:18:31.595Z,37.88
2023-02-11T23:21:35.396Z,38.15
2023-02-11T23:24:37.093Z,42.53
2023-02-11T23:27:38.788Z,42.17
2023-02-11T23:30:41.532Z,50.85
2023-02-11T23:33:43.306Z,52.28
2023-02-11T23:36:45.057Z,52.00
2023-02-11T23:39:46.769Z,48.33
2023-02-11T23:42:49.157Z,48.08
2023-02-11T23:45:52.341Z,47.88
2023-02-11T23:48:54.363Z,43.55
2023-02-11T23:51:56.402Z,51.10
2023-02-11T23:54:58.133Z,55.78
2023-02-11T23:57:59.849Z,57.70
